Declo, Idaho
Current Conditions -  °F | °C
As of 10:53 AM on Wednesday 28 Jan 2015 (Local Time) from KBYI Reporting Station
Overcast Overcast  
Wind Chill: 36°   Ceiling: 2100
Heat Index: 40°   Visibility: 9mi
Dew Point: 37°   Wind: 6mph
Humidity: 89%   Direction: 280°W
Pressure: 30.31"   Gusts: NA
Location:  42.52°N, 113.63°W
Report Text: KBYI 281753Z AUTO 28005KT 9SM FEW009 OVC021 04/03 A3031 RMK AO2 SLP268 60000 T00440028 10044 20022 51017
Loading
Personal Weather Stations






























Interactive Weather Map New forecast layout! Learn more

10-Day Weather Forecast

Advertisements
Track Severe Weather on mobile